Lockeport, Canada
Current Conditions -  °F | °C
As of 6:00 AM on Wednesday 22 Oct 2014 (Local Time) from CYQI Reporting Station
Overcast Overcast  
Wind Chill: 52°   Ceiling: 1000
Heat Index: 52°   Visibility: 9mi
Dew Point: 52°   Wind: 18mph
Humidity: 100%   Direction: 70°ENE
Pressure: 30.08"   Gusts: 28mph
Location:  43.7°N, 65.12°W
Report Text: CYQI 220900Z 07016G24KT 9SM FEW006 BKN010 OVC040 11/11 A3008 RMK SF1SF4SC3 SLP187
Loading
Personal Weather Stations






























Interactive Weather Map
Tropical Storm Tracking
New forecast layout! Learn more

10-Day Weather Forecast

Advertisements
Track Severe Weather on mobile